Time;durP1;ratioP1;P1;durP2;ratioP2;P2;SDS_P1;SDS_P2;PMS_P1;PMS_P2;Temp;Humidity;BMP_temperature;BMP_pressure;BME280_temperature;BME280_humidity;BME280_pressure;Samples;Min_cycle;Max_cycle;Signal;HPM_P1;HPM_P2
2021/04/11 00:01:28;;;;;;;1.00;0.60;;;24.60;46.20;;;;;;5089636;28;20388;-77
2021/04/11 00:03:55;;;;;;;2.20;0.50;;;24.30;42.90;;;;;;5090459;28;20372;-78
2021/04/11 00:06:22;;;;;;;1.23;0.80;;;23.90;43.40;;;;;;5083150;28;20382;-78
2021/04/11 00:08:49;;;;;;;2.73;0.60;;;23.20;42.70;;;;;;5076362;28;20806;-78
2021/04/11 00:11:17;;;;;;;1.10;0.40;;;22.50;42.70;;;;;;5074515;28;20412;-78
2021/04/11 00:13:44;;;;;;;1.77;0.45;;;22.60;44.10;;;;;;5069137;28;20370;-78
2021/04/11 00:16:11;;;;;;;1.65;0.40;;;22.70;46.60;;;;;;5071074;28;20413;-78
2021/04/11 00:18:38;;;;;;;1.88;0.40;;;22.10;49.50;;;;;;5089911;28;20384;-78
2021/04/11 00:21:05;;;;;;;1.58;0.40;;;22.60;47.40;;;;;;5090063;28;20709;-78
2021/04/11 00:23:33;;;;;;;4.85;0.68;;;22.60;46.90;;;;;;5087257;28;20461;-78
2021/04/11 00:26:00;;;;;;;1.00;0.50;;;22.90;44.60;;;;;;5069601;28;20865;-79
2021/04/11 00:28:27;;;;;;;2.53;0.52;;;22.80;44.80;;;;;;5076545;28;20397;-78
2021/04/11 00:30:54;;;;;;;3.55;0.77;;;22.90;44.40;;;;;;5091766;28;20941;-79
2021/04/11 00:33:31;;;;;;;2.15;0.60;;;23.00;44.50;;;;;;5089400;28;20385;-78
2021/04/11 00:36:00;;;;;;;1.95;0.40;;;23.30;43.40;;;;;;5088242;28;20394;-79
2021/04/11 00:38:28;;;;;;;2.75;0.47;;;23.00;43.60;;;;;;5087704;28;20441;-78
2021/04/11 00:41:04;;;;;;;1.73;0.60;;;23.00;43.60;;;;;;5088356;28;20399;-79
2021/04/11 00:43:32;;;;;;;2.83;0.47;;;23.10;44.40;;;;;;5087544;28;20376;-78
2021/04/11 00:46:15;;;;;;;1.80;0.50;;;22.80;42.90;;;;;;5088303;28;20400;-78
2021/04/11 00:48:42;;;;;;;2.10;0.50;;;22.60;50.70;;;;;;5085020;28;20411;-78
2021/04/11 00:51:16;;;;;;;2.10;0.50;;;22.70;45.50;;;;;;5079488;28;20417;-78
2021/04/11 00:53:44;;;;;;;1.88;0.50;;;21.70;47.10;;;;;;5079778;28;20394;-78
2021/04/11 00:56:13;;;;;;;1.52;0.55;;;21.50;47.10;;;;;;5089434;28;20873;-79
2021/04/11 00:58:40;;;;;;;1.13;0.30;;;21.50;47.10;;;;;;5084431;28;20482;-78
2021/04/11 01:01:08;;;;;;;1.92;0.60;;;21.50;46.00;;;;;;5083585;28;20436;-78
2021/04/11 01:03:38;;;;;;;3.80;0.45;;;21.20;45.20;;;;;;5081016;28;20503;-79
2021/04/11 01:06:14;;;;;;;0.90;0.47;;;21.10;48.90;;;;;;5089318;28;21063;-78
2021/04/11 01:08:41;;;;;;;3.60;0.57;;;20.00;48.80;;;;;;5088975;28;20793;-78
2021/04/11 01:11:16;;;;;;;1.73;0.50;;;19.10;50.40;;;;;;5100674;28;20427;-79
2021/04/11 01:13:51;;;;;;;1.50;0.50;;;18.60;53.60;;;;;;5082564;28;20400;-78
2021/04/11 01:16:19;;;;;;;2.35;0.50;;;18.20;53.90;;;;;;5088865;28;20878;-78
2021/04/11 01:18:48;;;;;;;2.35;0.60;;;18.00;56.80;;;;;;5088685;28;20375;-78
2021/04/11 01:21:41;;;;;;;3.13;0.63;;;17.90;55.30;;;;;;5088604;28;20390;-79
2021/04/11 01:24:08;;;;;;;3.55;0.55;;;17.80;53.80;;;;;;5088782;28;20551;-79
2021/04/11 01:26:36;;;;;;;0.57;0.40;;;17.70;55.40;;;;;;5087494;28;20394;-78
2021/04/11 01:29:04;;;;;;;1.30;0.50;;;17.70;57.30;;;;;;5087786;28;20396;-79
2021/04/11 01:31:33;;;;;;;1.20;0.40;;;17.50;55.30;;;;;;5089089;28;20403;-78
2021/04/11 01:34:01;;;;;;;2.15;0.40;;;17.40;55.20;;;;;;5088763;28;20364;-78
2021/04/11 01:36:32;;;;;;;1.58;0.40;;;17.40;58.00;;;;;;5078218;28;20803;-79
2021/04/11 01:39:04;;;;;;;1.25;0.30;;;17.30;53.80;;;;;;5068757;28;20378;-78
2021/04/11 01:41:39;;;;;;;3.67;0.47;;;17.20;53.10;;;;;;5087730;28;20411;-78
2021/04/11 01:44:08;;;;;;;3.00;0.60;;;17.10;53.80;;;;;;5088871;28;20380;-79
2021/04/11 01:46:35;;;;;;;2.08;0.60;;;17.00;54.00;;;;;;5095656;28;20418;-78
2021/04/11 01:49:05;;;;;;;2.60;0.50;;;17.00;54.50;;;;;;5089900;28;20402;-79
2021/04/11 01:51:42;;;;;;;2.50;0.52;;;17.00;56.60;;;;;;5087079;28;20407;-78
2021/04/11 01:54:24;;;;;;;1.50;0.28;;;17.00;52.50;;;;;;5076447;28;20396;-78
2021/04/11 01:56:52;;;;;;;1.13;0.40;;;17.00;53.00;;;;;;5067711;28;20936;-79
2021/04/11 01:59:29;;;;;;;1.38;0.43;;;17.00;52.10;;;;;;5068256;28;20412;-78
2021/04/11 02:01:56;;;;;;;1.90;0.40;;;17.00;53.20;;;;;;5071545;28;20904;-79
2021/04/11 02:04:23;;;;;;;2.20;0.43;;;16.90;52.90;;;;;;5080877;28;20403;-78
2021/04/11 02:06:57;;;;;;;1.40;0.53;;;16.90;51.90;;;;;;5086228;28;20387;-78
2021/04/11 02:09:29;;;;;;;1.80;0.35;;;16.90;54.70;;;;;;5081938;28;20380;-79
2021/04/11 02:12:11;;;;;;;;;;;;;;;;;;;;;
2021/04/11 02:14:41;;;;;;;1.00;0.40;;;17.10;53.40;;;;;;5086124;28;20378;-80
2021/04/11 02:17:09;;;;;;;1.88;0.60;;;17.10;53.80;;;;;;5119624;28;20801;-80
2021/04/11 02:19:37;;;;;;;3.67;0.35;;;17.10;52.40;;;;;;5087474;28;20801;-79
2021/04/11 02:22:18;;;;;;;1.67;0.30;;;17.00;53.00;;;;;;5081578;28;20413;-79
2021/04/11 02:24:49;;;;;;;0.60;0.28;;;17.00;53.40;;;;;;5084864;28;20392;-79
2021/04/11 02:27:18;;;;;;;0.83;0.20;;;17.10;52.90;;;;;;5085534;28;20388;-81
2021/04/11 02:29:46;;;;;;;0.80;0.40;;;17.20;53.00;;;;;;5088497;28;20392;-80
2021/04/11 02:32:15;;;;;;;2.63;0.50;;;17.10;53.50;;;;;;5088221;28;20491;-80
2021/04/11 02:34:45;;;;;;;3.10;0.50;;;17.00;53.60;;;;;;5088089;28;20406;-80
2021/04/11 02:37:25;;;;;;;3.13;0.70;;;17.10;55.70;;;;;;5087181;28;20399;-79
2021/04/11 02:39:55;;;;;;;3.13;0.43;;;17.20;55.80;;;;;;5091999;28;20368;-79
2021/04/11 02:42:30;;;;;;;4.63;0.60;;;17.20;53.30;;;;;;5092086;28;20368;-79
2021/04/11 02:45:04;;;;;;;2.00;0.50;;;17.20;53.90;;;;;;5091090;28;20911;-79
2021/04/11 02:47:31;;;;;;;1.77;0.40;;;17.30;53.90;;;;;;5089457;28;20391;-79
2021/04/11 02:50:00;;;;;;;1.50;0.38;;;17.20;53.70;;;;;;5090723;28;20755;-79
2021/04/11 02:52:32;;;;;;;1.13;0.40;;;17.30;53.60;;;;;;5088953;28;20487;-79
2021/04/11 02:55:00;;;;;;;2.33;0.40;;;17.40;55.80;;;;;;5086892;28;20863;-80
2021/04/11 02:57:27;;;;;;;2.65;0.60;;;17.40;52.20;;;;;;5091879;28;20376;-79
2021/04/11 02:59:55;;;;;;;1.27;0.60;;;17.50;53.50;;;;;;5090622;28;20735;-80
2021/04/11 03:02:23;;;;;;;2.35;0.50;;;17.50;48.90;;;;;;5091492;28;20796;-79
2021/04/11 03:04:52;;;;;;;2.72;0.30;;;17.40;51.70;;;;;;5090281;28;20385;-79
2021/04/11 03:07:34;;;;;;;1.67;0.30;;;17.30;51.60;;;;;;5091553;28;20403;-80
2021/04/11 03:10:15;;;;;;;2.63;0.33;;;17.40;50.40;;;;;;5089808;28;20890;-79
2021/04/11 03:12:44;;;;;;;1.42;0.50;;;17.30;53.20;;;;;;5082232;28;20747;-80
2021/04/11 03:15:13;;;;;;;1.20;0.30;;;17.30;50.40;;;;;;5089449;28;20384;-79
2021/04/11 03:17:42;;;;;;;0.88;0.40;;;17.20;53.90;;;;;;5091242;28;20384;-79
2021/04/11 03:20:15;;;;;;;3.03;0.60;;;17.30;52.20;;;;;;5090421;28;20882;-81
2021/04/11 03:22:42;;;;;;;1.30;0.40;;;17.30;53.80;;;;;;5091137;28;20376;-80
2021/04/11 03:25:12;;;;;;;0.40;0.40;;;17.40;52.20;;;;;;5086192;28;20497;-80
2021/04/11 03:27:55;;;;;;;1.13;0.25;;;17.50;53.00;;;;;;5076378;28;20750;-79
2021/04/11 03:30:57;;;;;;;3.28;0.50;;;17.50;53.10;;;;;;5091408;28;20368;-80
2021/04/11 03:33:25;;;;;;;1.90;0.50;;;17.50;50.90;;;;;;5089412;28;20395;-79
2021/04/11 03:35:53;;;;;;;2.70;0.50;;;17.50;52.00;;;;;;5090330;28;20387;-79
2021/04/11 03:38:26;;;;;;;0.80;0.30;;;17.50;52.40;;;;;;5089399;28;20416;-79
2021/04/11 03:40:58;;;;;;;2.00;0.40;;;17.50;52.00;;;;;;5090760;28;20372;-80
2021/04/11 03:43:53;;;;;;;2.65;0.50;;;17.50;50.50;;;;;;5087384;28;20551;-80
2021/04/11 03:46:43;;;;;;;0.80;0.40;;;17.40;51.80;;;;;;5083823;28;20369;-80
2021/04/11 03:49:22;;;;;;;2.70;0.50;;;17.30;50.60;;;;;;5089937;28;20397;-79
2021/04/11 03:51:53;;;;;;;0.80;0.50;;;17.40;54.00;;;;;;5079359;28;20770;-79
2021/04/11 03:54:30;;;;;;;1.45;0.28;;;17.50;54.20;;;;;;5078885;28;20382;-79
2021/04/11 03:57:17;;;;;;;1.20;0.40;;;17.50;51.60;;;;;;5070295;28;20368;-79
2021/04/11 04:00:03;;;;;;;2.08;0.43;;;17.50;51.80;;;;;;5070128;28;20412;-83
2021/04/11 04:02:36;;;;;;;1.35;0.20;;;17.50;52.70;;;;;;5076449;28;20763;-80
2021/04/11 04:05:06;;;;;;;2.05;0.40;;;17.40;51.50;;;;;;5088392;28;20400;-79
2021/04/11 04:07:55;;;;;;;1.65;0.40;;;17.40;51.50;;;;;;5090482;28;20376;-79
2021/04/11 04:10:25;;;;;;;3.30;0.70;;;17.40;52.40;;;;;;5088775;28;20384;-79
2021/04/11 04:13:08;;;;;;;1.65;0.40;;;17.30;52.40;;;;;;5087775;28;20408;-81
2021/04/11 04:15:57;;;;;;;2.90;1.00;;;17.30;54.50;;;;;;5083260;28;20408;-80
2021/04/11 04:18:56;;;;;;;1.73;0.40;;;17.30;52.50;;;;;;5082112;28;20846;-80
2021/04/11 04:21:38;;;;;;;0.85;0.40;;;17.30;51.20;;;;;;5078495;28;20487;-81
2021/04/11 04:24:45;;;;;;;1.35;0.38;;;17.40;53.50;;;;;;5087425;28;20471;-82
2021/04/11 04:27:49;;;;;;;2.10;0.43;;;17.40;51.90;;;;;;5086127;28;20397;-82
2021/04/11 04:30:20;;;;;;;0.88;0.52;;;17.50;52.10;;;;;;5085894;28;20817;-81
2021/04/11 04:32:56;;;;;;;5.05;0.60;;;17.40;52.20;;;;;;5078181;28;20413;-81
2021/04/11 04:35:35;;;;;;;2.72;0.30;;;17.40;52.90;;;;;;5086800;28;20377;-80
2021/04/11 04:38:15;;;;;;;0.70;0.40;;;17.30;52.70;;;;;;5089839;28;20431;-80
2021/04/11 04:41:10;;;;;;;2.88;0.30;;;17.20;49.20;;;;;;5089746;28;20368;-81
2021/04/11 04:44:04;;;;;;;1.45;0.52;;;17.20;53.00;;;;;;5075043;28;20436;-80
2021/04/11 04:47:10;;;;;;;2.05;0.35;;;17.20;52.60;;;;;;5069222;28;20378;-80
2021/04/11 04:49:51;;;;;;;4.28;0.55;;;17.20;52.00;;;;;;5069070;28;20426;-79
2021/04/11 04:52:29;;;;;;;0.60;0.30;;;17.20;54.50;;;;;;5069235;28;20908;-80
2021/04/11 04:55:22;;;;;;;2.10;0.30;;;17.20;53.80;;;;;;5069293;28;20447;-79
2021/04/11 04:58:01;;;;;;;2.30;0.30;;;17.10;54.50;;;;;;5068866;28;20485;-79
2021/04/11 05:00:41;;;;;;;0.80;0.35;;;17.00;52.60;;;;;;5069525;28;20412;-80
2021/04/11 05:03:19;;;;;;;4.00;0.57;;;17.00;51.30;;;;;;5068980;28;20417;-80
2021/04/11 05:05:52;;;;;;;1.02;0.47;;;17.00;52.80;;;;;;5067352;28;20405;-80
2021/04/11 05:08:30;;;;;;;1.97;0.47;;;17.00;52.20;;;;;;5069083;28;20469;-79
2021/04/11 05:11:19;;;;;;;1.75;0.28;;;16.90;52.90;;;;;;5070523;28;20392;-79
2021/04/11 05:13:51;;;;;;;0.98;0.25;;;16.90;52.60;;;;;;5088725;28;20426;-79
2021/04/11 05:16:26;;;;;;;1.48;0.47;;;16.80;53.10;;;;;;5089177;28;20365;-80
2021/04/11 05:19:17;;;;;;;2.10;0.30;;;16.90;53.20;;;;;;5088697;28;20872;-79
2021/04/11 05:21:50;;;;;;;1.23;0.40;;;16.80;53.80;;;;;;5081196;28;20384;-80
2021/04/11 05:24:32;;;;;;;1.73;0.35;;;16.80;54.10;;;;;;5088986;28;20755;-79
2021/04/11 05:27:31;;;;;;;1.63;0.43;;;16.70;53.80;;;;;;5089135;28;20360;-79
2021/04/11 05:30:11;;;;;;;3.10;0.55;;;16.60;53.10;;;;;;5088943;28;20392;-80
2021/04/11 05:32:38;;;;;;;1.80;0.40;;;16.50;52.70;;;;;;5082927;28;20631;-79
2021/04/11 05:35:06;;;;;;;1.80;0.55;;;16.40;52.10;;;;;;5068566;28;20472;-79
2021/04/11 05:37:45;;;;;;;2.43;0.40;;;16.40;52.50;;;;;;5068576;28;20417;-79
2021/04/11 05:40:17;;;;;;;1.33;0.50;;;16.40;54.30;;;;;;5068611;28;20366;-79
2021/04/11 05:42:57;;;;;;;1.55;0.43;;;16.40;54.70;;;;;;5068585;28;20405;-80
2021/04/11 05:45:48;;;;;;;2.23;0.60;;;16.40;54.50;;;;;;5067979;28;20399;-79
2021/04/11 05:48:51;;;;;;;1.05;0.32;;;16.40;51.90;;;;;;5068677;28;20386;-79
2021/04/11 05:51:30;;;;;;;0.97;0.20;;;16.40;52.70;;;;;;5068402;28;20396;-80
2021/04/11 05:54:39;;;;;;;1.73;0.52;;;16.30;50.80;;;;;;5068597;28;20852;-79
2021/04/11 05:57:18;;;;;;;1.30;0.40;;;16.20;53.50;;;;;;5025751;28;20393;-79
2021/04/11 06:00:07;;;;;;;2.38;0.40;;;16.20;53.20;;;;;;5026200;28;20389;-80
2021/04/11 06:02:48;;;;;;;3.03;0.60;;;16.10;53.00;;;;;;5071378;28;20422;-80
2021/04/11 06:05:24;;;;;;;1.05;0.57;;;16.00;55.60;;;;;;5088774;28;20755;-79
2021/04/11 06:08:07;;;;;;;2.83;0.50;;;16.00;54.20;;;;;;5087581;28;20481;-79
2021/04/11 06:10:45;;;;;;;1.10;0.50;;;15.90;53.70;;;;;;5088751;28;20380;-80
2021/04/11 06:13:44;;;;;;;2.77;0.50;;;15.90;54.70;;;;;;5090904;28;20411;-79
2021/04/11 06:16:16;;;;;;;1.80;0.55;;;15.90;55.40;;;;;;5089625;28;20462;-80
2021/04/11 06:18:50;;;;;;;1.65;0.50;;;15.90;56.10;;;;;;5083501;28;20516;-79
2021/04/11 06:21:35;;;;;;;1.05;0.30;;;15.80;55.40;;;;;;5072155;28;20402;-80
2021/04/11 06:24:20;;;;;;;1.87;0.43;;;15.70;55.20;;;;;;5070754;28;20386;-79
2021/04/11 06:27:10;;;;;;;1.17;0.40;;;15.70;53.80;;;;;;5071802;28;20880;-80
2021/04/11 06:30:07;;;;;;;0.63;0.25;;;15.60;54.20;;;;;;5071384;28;21315;-79
2021/04/11 06:32:54;;;;;;;2.10;0.60;;;15.60;53.20;;;;;;5072172;28;20487;-80
2021/04/11 06:35:46;;;;;;;3.38;0.40;;;15.50;53.90;;;;;;5071683;28;20446;-79
2021/04/11 06:38:20;;;;;;;2.30;0.20;;;15.50;54.40;;;;;;5071892;28;20918;-79
2021/04/11 06:40:59;;;;;;;1.25;0.50;;;15.40;54.60;;;;;;5070056;28;20382;-79
2021/04/11 06:43:55;;;;;;;1.00;0.22;;;15.30;53.60;;;;;;5071500;28;20390;-79
2021/04/11 06:46:59;;;;;;;1.17;0.30;;;15.20;53.20;;;;;;5066886;28;20435;-79
2021/04/11 06:49:58;;;;;;;2.53;0.40;;;15.20;56.90;;;;;;5071288;28;20505;-79
2021/04/11 06:52:28;;;;;;;2.45;0.50;;;15.00;55.80;;;;;;5071402;28;20402;-80
2021/04/11 06:55:24;;;;;;;0.60;0.30;;;15.00;56.50;;;;;;5070027;28;20454;-79
2021/04/11 06:58:29;;;;;;;1.52;0.28;;;14.90;56.30;;;;;;5066637;28;20390;-80
2021/04/11 07:01:17;;;;;;;1.98;1.10;;;14.80;58.00;;;;;;5048465;28;20374;-80
2021/04/11 07:04:05;;;;;;;2.03;0.80;;;14.70;56.70;;;;;;5071114;28;20922;-79
2021/04/11 07:07:01;;;;;;;3.00;0.52;;;14.60;58.20;;;;;;5071324;28;20381;-79
2021/04/11 07:09:36;;;;;;;2.70;0.60;;;14.50;58.10;;;;;;5071336;28;20378;-80
2021/04/11 07:12:24;;;;;;;2.30;0.60;;;14.40;58.00;;;;;;5071076;28;20438;-79
2021/04/11 07:15:24;;;;;;;2.08;0.60;;;14.30;59.10;;;;;;5071016;28;20382;-80
2021/04/11 07:18:15;;;;;;;4.80;0.83;;;14.30;57.00;;;;;;5048169;28;20371;-80
2021/04/11 07:20:47;;;;;;;1.85;0.40;;;14.30;56.40;;;;;;5071058;28;20744;-80
2021/04/11 07:23:17;;;;;;;3.40;0.52;;;14.30;58.50;;;;;;5070526;28;20362;-80
2021/04/11 07:25:51;;;;;;;3.00;0.70;;;14.20;59.60;;;;;;5070427;28;20868;-80
2021/04/11 07:28:54;;;;;;;2.37;0.70;;;14.10;59.10;;;;;;5071078;28;20525;-80
2021/04/11 07:31:47;;;;;;;3.15;0.50;;;14.00;58.60;;;;;;5069603;28;20765;-80
2021/04/11 07:34:32;;;;;;;2.30;0.40;;;14.00;61.20;;;;;;5070778;28;20377;-80
2021/04/11 07:37:11;;;;;;;1.50;0.40;;;13.90;59.20;;;;;;5070675;28;20378;-80
2021/04/11 07:39:59;;;;;;;1.50;0.50;;;13.80;60.80;;;;;;5070517;28;20516;-79
2021/04/11 07:42:57;;;;;;;2.65;0.70;;;13.70;59.60;;;;;;5070691;28;20358;-80
2021/04/11 07:46:01;;;;;;;1.35;0.60;;;13.70;60.90;;;;;;5070451;28;20377;-80
2021/04/11 07:49:00;;;;;;;2.20;0.65;;;13.60;60.80;;;;;;5070319;28;20412;-80
2021/04/11 07:51:37;;;;;;;1.23;0.65;;;13.50;60.50;;;;;;5069731;28;20738;-80
2021/04/11 07:54:40;;;;;;;4.90;0.60;;;13.50;62.10;;;;;;5070146;28;20390;-79
2021/04/11 07:57:28;;;;;;;3.17;0.75;;;13.40;61.90;;;;;;5070430;28;20924;-80
2021/04/11 08:00:24;;;;;;;3.30;0.73;;;13.40;60.40;;;;;;5070302;28;20428;-80
2021/04/11 08:03:27;;;;;;;2.58;0.80;;;13.40;60.50;;;;;;5070625;28;20366;-80
2021/04/11 08:06:23;;;;;;;1.13;0.80;;;13.30;63.40;;;;;;5070318;28;20853;-80
2021/04/11 08:09:20;;;;;;;2.53;0.77;;;13.20;64.40;;;;;;5070193;28;20732;-80
2021/04/11 08:12:14;;;;;;;4.85;0.90;;;13.10;64.00;;;;;;5069956;28;20405;-80
2021/04/11 08:15:23;;;;;;;5.88;0.80;;;13.00;64.20;;;;;;5069984;28;20466;-79
2021/04/11 08:18:26;;;;;;;1.70;0.68;;;13.00;64.10;;;;;;5044134;28;20378;-79
2021/04/11 08:21:17;;;;;;;3.95;0.73;;;13.00;64.20;;;;;;5027851;28;20799;-79
2021/04/11 08:24:08;;;;;;;2.10;0.80;;;12.90;65.10;;;;;;5064889;28;20420;-79
2021/04/11 08:27:03;;;;;;;2.73;0.70;;;12.80;64.50;;;;;;5069936;28;20543;-79
2021/04/11 08:29:58;;;;;;;4.47;0.60;;;12.80;64.70;;;;;;5069634;28;20382;-79
2021/04/11 08:32:31;;;;;;;3.15;0.68;;;12.70;65.40;;;;;;5069995;28;20402;-79
2021/04/11 08:35:10;;;;;;;2.90;0.80;;;12.60;65.40;;;;;;5069365;28;20467;-79
2021/04/11 08:37:58;;;;;;;3.03;0.68;;;12.60;66.00;;;;;;5069537;28;20381;-79
2021/04/11 08:40:53;;;;;;;1.50;0.50;;;12.50;66.70;;;;;;5069674;28;20362;-79
2021/04/11 08:43:41;;;;;;;2.60;0.80;;;12.50;66.10;;;;;;5069324;28;20382;-79
2021/04/11 08:46:35;;;;;;;1.88;0.73;;;12.40;67.10;;;;;;5069286;28;20421;-79
2021/04/11 08:49:25;;;;;;;3.22;0.70;;;12.30;66.50;;;;;;5069246;28;20390;-79
2021/04/11 08:52:23;;;;;;;2.70;0.70;;;12.30;66.50;;;;;;5069260;28;20452;-79
2021/04/11 08:55:10;;;;;;;3.15;0.60;;;12.30;66.40;;;;;;5069205;28;20461;-79
2021/04/11 08:57:58;;;;;;;3.25;0.43;;;12.30;66.40;;;;;;5069328;28;20382;-79
2021/04/11 09:00:30;;;;;;;2.90;0.63;;;12.40;65.40;;;;;;5069206;28;20374;-78
2021/04/11 09:03:08;;;;;;;3.50;0.50;;;12.50;65.60;;;;;;5069570;28;20949;-79
2021/04/11 09:05:54;;;;;;;1.95;0.63;;;12.40;65.50;;;;;;5069175;28;20374;-79
2021/04/11 09:08:45;;;;;;;5.43;0.93;;;12.50;66.50;;;;;;5069004;28;20436;-79
2021/04/11 09:11:28;;;;;;;3.05;0.60;;;12.50;65.40;;;;;;5069160;28;20484;-79
2021/04/11 09:13:58;;;;;;;2.38;0.88;;;12.40;65.40;;;;;;5069005;28;20744;-78
2021/04/11 09:16:54;;;;;;;1.85;0.90;;;12.40;65.70;;;;;;5083562;28;20904;-78
2021/04/11 09:19:56;;;;;;;2.88;0.80;;;12.40;66.40;;;;;;5085937;28;20391;-79
2021/04/11 09:22:34;;;;;;;2.60;0.80;;;12.30;67.60;;;;;;5085352;28;20422;-79
2021/04/11 09:25:25;;;;;;;4.32;1.23;;;12.30;66.60;;;;;;5072866;28;20388;-79
2021/04/11 09:28:14;;;;;;;3.90;0.70;;;12.20;66.80;;;;;;5085270;28;20384;-79
2021/04/11 09:30:59;;;;;;;3.45;0.73;;;12.20;66.80;;;;;;5084766;28;20451;-80
2021/04/11 09:33:48;;;;;;;3.40;0.82;;;12.20;66.70;;;;;;5080892;28;20400;-80
2021/04/11 09:36:37;;;;;;;1.33;0.43;;;12.20;66.70;;;;;;5086767;28;20391;-79
2021/04/11 09:39:25;;;;;;;0.95;0.50;;;12.10;67.40;;;;;;5080207;28;20745;-79
2021/04/11 09:42:13;;;;;;;3.83;0.60;;;12.10;67.90;;;;;;5093388;28;20419;-80
2021/04/11 09:45:01;;;;;;;1.52;0.80;;;12.00;67.90;;;;;;5085451;28;20391;-80
2021/04/11 09:47:46;;;;;;;2.17;0.88;;;12.00;67.70;;;;;;5085621;28;20383;-79
2021/04/11 09:50:24;;;;;;;4.17;0.70;;;12.00;68.10;;;;;;5072892;28;20451;-80
2021/04/11 09:53:17;;;;;;;1.38;0.50;;;12.00;67.70;;;;;;5083448;28;20405;-80
2021/04/11 09:55:57;;;;;;;1.90;0.57;;;12.00;68.10;;;;;;5080735;28;20427;-80
2021/04/11 09:58:53;;;;;;;1.88;0.52;;;11.90;68.10;;;;;;5091622;28;20414;-80
2021/04/11 10:01:50;;;;;;;3.07;0.70;;;11.90;68.90;;;;;;5081557;28;20388;-80
2021/04/11 10:05:04;;;;;;;1.95;0.50;;;11.90;68.20;;;;;;5085480;28;20445;-80
2021/04/11 10:07:46;;;;;;;2.63;0.57;;;11.90;69.00;;;;;;5011260;28;20491;-78
2021/04/11 10:10:40;;;;;;;1.77;0.55;;;11.90;67.80;;;;;;5009398;28;20430;-79
2021/04/11 10:13:31;;;;;;;2.78;0.63;;;11.90;68.20;;;;;;5094459;27;20396;-81
2021/04/11 10:16:21;;;;;;;2.97;0.90;;;11.90;69.20;;;;;;5091464;28;20380;-79
2021/04/11 10:19:06;;;;;;;2.58;0.50;;;11.90;68.50;;;;;;5078576;28;20742;-79
2021/04/11 10:21:51;;;;;;;2.05;0.50;;;11.90;69.00;;;;;;5089653;28;20750;-80
2021/04/11 10:24:23;;;;;;;1.67;0.50;;;11.90;69.50;;;;;;5090371;28;20425;-80
2021/04/11 10:26:50;;;;;;;3.70;0.88;;;11.90;69.70;;;;;;5091768;28;20387;-80
2021/04/11 10:29:21;;;;;;;4.07;0.80;;;11.80;69.90;;;;;;5091779;28;20395;-80
2021/04/11 10:32:13;;;;;;;1.00;0.50;;;11.80;71.10;;;;;;5090503;28;20469;-79
2021/04/11 10:35:08;;;;;;;2.73;0.80;;;11.80;70.60;;;;;;5084841;28;20378;-79
2021/04/11 10:38:25;;;;;;;3.92;0.47;;;11.70;70.90;;;;;;5083603;28;20404;-80
2021/04/11 10:41:20;;;;;;;2.15;0.60;;;11.70;71.70;;;;;;5026475;28;20404;-79
2021/04/11 10:44:34;;;;;;;2.30;0.60;;;11.60;71.50;;;;;;5021035;28;20887;-79
2021/04/11 10:47:10;;;;;;;2.53;0.57;;;11.60;72.20;;;;;;5027246;28;20395;-79
2021/04/11 10:49:55;;;;;;;1.35;0.57;;;11.50;72.20;;;;;;5088216;28;20758;-79
2021/04/11 10:52:54;;;;;;;1.47;0.60;;;11.50;72.80;;;;;;5080632;28;20398;-79
2021/04/11 10:55:55;;;;;;;2.60;0.73;;;11.40;73.60;;;;;;5073591;28;20811;-79
2021/04/11 10:58:24;;;;;;;1.00;0.52;;;11.40;74.60;;;;;;5075397;28;20392;-79
2021/04/11 11:01:03;;;;;;;3.20;0.60;;;11.30;74.70;;;;;;5082610;28;20399;-79
2021/04/11 11:04:00;;;;;;;1.80;0.50;;;11.20;74.90;;;;;;5084587;28;20396;-78
2021/04/11 11:06:39;;;;;;;3.45;0.68;;;11.20;77.20;;;;;;5071100;28;20885;-78
2021/04/11 11:09:21;;;;;;;2.10;0.70;;;11.10;77.30;;;;;;5078203;28;20471;-78
2021/04/11 11:12:21;;;;;;;2.10;0.70;;;11.10;78.10;;;;;;5079855;28;20400;-79
2021/04/11 11:15:29;;;;;;;1.90;0.75;;;11.00;78.00;;;;;;5078248;28;20400;-79
2021/04/11 11:18:30;;;;;;;2.35;0.85;;;11.00;78.70;;;;;;5056219;28;20443;-78
2021/04/11 11:21:09;;;;;;;1.10;0.70;;;10.90;78.70;;;;;;5077897;28;20405;-79
2021/04/11 11:24:13;;;;;;;2.55;0.90;;;11.00;78.30;;;;;;5067890;28;20373;-78
2021/04/11 11:26:54;;;;;;;2.58;0.70;;;10.90;80.20;;;;;;5070483;28;20407;-78
2021/04/11 11:29:51;;;;;;;3.50;0.63;;;10.90;80.30;;;;;;5085405;28;20786;-78
2021/04/11 11:32:31;;;;;;;2.67;0.80;;;10.90;80.80;;;;;;5068883;28;20416;-79
2021/04/11 11:35:07;;;;;;;1.92;0.68;;;10.80;81.00;;;;;;5067722;28;20490;-79
2021/04/11 11:37:55;;;;;;;1.75;0.75;;;10.80;81.40;;;;;;5086940;28;20483;-78
2021/04/11 11:40:46;;;;;;;2.53;0.68;;;10.80;80.60;;;;;;5086647;28;20418;-78
2021/04/11 11:43:13;;;;;;;2.72;0.90;;;10.80;81.60;;;;;;5082835;28;20422;-79
2021/04/11 11:45:49;;;;;;;4.00;0.90;;;10.80;82.50;;;;;;5073089;28;20420;-78
2021/04/11 11:48:25;;;;;;;2.28;0.55;;;10.70;82.90;;;;;;5079904;28;20404;-79
2021/04/11 11:51:16;;;;;;;2.42;0.70;;;10.70;82.00;;;;;;5086735;28;20451;-79
2021/04/11 11:53:55;;;;;;;2.80;0.80;;;10.70;81.60;;;;;;5087169;28;20393;-79
2021/04/11 11:56:36;;;;;;;2.50;0.90;;;10.70;83.80;;;;;;5083513;28;20470;-79
2021/04/11 11:59:06;;;;;;;5.35;0.60;;;10.80;84.10;;;;;;5086135;28;20972;-79
2021/04/11 12:01:38;;;;;;;2.35;0.50;;;10.70;85.40;;;;;;5085327;28;20385;-79
2021/04/11 12:04:34;;;;;;;2.22;0.68;;;10.70;85.70;;;;;;5086496;28;20396;-79
2021/04/11 12:07:07;;;;;;;2.22;0.50;;;10.60;87.00;;;;;;5077188;28;20416;-79
2021/04/11 12:09:45;;;;;;;1.85;0.60;;;10.60;87.60;;;;;;5067566;28;20433;-79
2021/04/11 12:12:25;;;;;;;2.03;0.60;;;10.60;88.00;;;;;;5079603;28;20408;-78
2021/04/11 12:15:10;;;;;;;2.38;0.70;;;10.50;89.00;;;;;;5071960;28;21044;-78
2021/04/11 12:17:59;;;;;;;2.37;0.77;;;10.40;87.40;;;;;;5068598;28;20650;-78
2021/04/11 12:20:49;;;;;;;4.80;1.27;;;10.40;89.60;;;;;;5069464;28;20873;-79
2021/04/11 12:23:31;;;;;;;1.67;0.60;;;10.30;89.80;;;;;;5073738;28;20409;-79
2021/04/11 12:26:13;;;;;;;6.63;0.80;;;10.30;90.30;;;;;;5073217;28;20388;-79
2021/04/11 12:28:42;;;;;;;3.80;0.70;;;10.30;90.10;;;;;;5088014;28;20384;-79
2021/04/11 12:31:30;;;;;;;2.08;0.60;;;10.30;91.20;;;;;;5087177;28;20879;-79
2021/04/11 12:34:22;;;;;;;3.75;0.90;;;10.30;91.90;;;;;;5070348;28;20469;-79
2021/04/11 12:37:10;;;;;;;2.58;0.80;;;10.20;92.20;;;;;;5069501;28;20396;-79
2021/04/11 12:39:38;;;;;;;1.60;0.50;;;10.20;92.40;;;;;;5081288;28;20475;-79
2021/04/11 12:42:28;;;;;;;1.90;0.80;;;10.20;92.70;;;;;;5079179;28;20416;-78
2021/04/11 12:45:15;;;;;;;1.70;0.55;;;10.10;92.90;;;;;;5086208;28;20388;-79
2021/04/11 12:48:00;;;;;;;3.08;0.50;;;10.10;92.40;;;;;;5074966;28;20410;-79
2021/04/11 12:50:35;;;;;;;3.88;0.70;;;10.10;93.50;;;;;;5084065;28;20909;-79
2021/04/11 12:53:14;;;;;;;2.30;0.60;;;10.00;93.30;;;;;;5080850;28;20409;-79
2021/04/11 12:55:50;;;;;;;2.65;0.65;;;10.00;94.40;;;;;;5085813;28;20392;-79
2021/04/11 12:58:37;;;;;;;2.28;0.68;;;10.00;94.00;;;;;;5069908;28;20386;-78
2021/04/11 13:01:12;;;;;;;3.73;0.70;;;10.00;94.70;;;;;;5069148;28;20363;-78
2021/04/11 13:03:46;;;;;;;1.92;0.63;;;10.00;95.50;;;;;;5086466;28;20384;-79
2021/04/11 13:06:24;;;;;;;1.38;0.65;;;9.90;96.00;;;;;;5085928;28;20449;-78
2021/04/11 13:09:20;;;;;;;5.25;0.85;;;9.80;95.30;;;;;;5087736;28;20394;-79
2021/04/11 13:12:02;;;;;;;1.90;0.80;;;9.80;95.80;;;;;;5078962;28;20404;-79
2021/04/11 13:14:58;;;;;;;3.53;0.80;;;9.80;96.60;;;;;;5077709;28;20883;-79
2021/04/11 13:17:43;;;;;;;2.92;0.80;;;9.70;96.80;;;;;;5079308;28;20392;-79
2021/04/11 13:20:19;;;;;;;3.20;0.80;;;9.70;97.00;;;;;;5083465;28;20388;-78
2021/04/11 13:22:52;;;;;;;4.68;1.02;;;9.70;98.30;;;;;;5083065;28;20384;-79
2021/04/11 13:25:41;;;;;;;1.42;0.80;;;9.70;97.20;;;;;;5087069;28;20799;-79
2021/04/11 13:28:24;;;;;;;1.88;0.60;;;9.70;96.70;;;;;;5084136;28;20380;-79
2021/04/11 13:31:18;;;;;;;2.05;0.80;;;9.70;96.20;;;;;;5077967;28;20388;-78
2021/04/11 13:33:58;;;;;;;4.30;0.70;;;9.80;95.60;;;;;;5079578;28;20410;-79
2021/04/11 13:36:40;;;;;;;2.40;0.80;;;9.80;95.30;;;;;;5084115;28;20890;-79
2021/04/11 13:39:30;;;;;;;4.38;0.85;;;9.80;95.00;;;;;;5083481;28;20391;-79
2021/04/11 13:42:30;;;;;;;1.13;0.60;;;9.90;95.10;;;;;;5086573;28;20396;-79
2021/04/11 13:45:31;;;;;;;2.78;0.50;;;9.80;95.30;;;;;;5078721;28;20545;-80
2021/04/11 13:48:07;;;;;;;5.43;0.98;;;9.90;95.70;;;;;;5074062;28;20392;-79
2021/04/11 13:50:52;;;;;;;2.63;0.65;;;9.90;95.80;;;;;;5087815;28;20376;-79
2021/04/11 13:53:38;;;;;;;4.47;0.75;;;9.80;96.70;;;;;;5088454;28;20412;-79
2021/04/11 13:56:12;;;;;;;3.00;0.70;;;9.80;96.60;;;;;;5068567;28;20376;-78
2021/04/11 13:58:50;;;;;;;3.95;0.82;;;9.80;96.50;;;;;;5078743;28;20440;-78
2021/04/11 14:01:38;;;;;;;2.40;0.63;;;9.80;96.30;;;;;;5088319;28;20376;-79
2021/04/11 14:04:28;;;;;;;2.60;0.90;;;9.70;96.20;;;;;;5088349;28;20441;-79